Tuesday, August 21, 2018, 1:54 PM GMT
Back to Local

CYTR, Trenton, Ont.

Location: , , Canada Lat: 44.117
Local Time: 1:54 PM GMT (13:54 GMT) Lon: -77.533
Time Zone: GMT Elev: 278 ft

Show me the last for .
Show Decoded

2018-08-21 07:00 METAR CYTR 210700Z 15003KT 15SM OVC050 22/19 A3000 RMK SC8 SLP158 =
2018-08-21 05:00 METAR CYTR 210500Z 06002KT 15SM BKN065 BKN220 20/18 A3002 RMK SC5CI2 SLP166 =
2018-08-21 04:00 METAR CYTR 210400Z 09004KT 15SM BKN045 OVC220 22/18 A3003 RMK SC5CI3 SLP168 =
2018-08-21 03:00 METAR CYTR 210300Z 07003KT 15SM OVC045 22/18 A3005 RMK SC8 SLP175 =
2018-08-21 02:00 METAR CYTR 210200Z 05003KT 15SM BKN045 OVC220 21/17 A3006 RMK SC6CI2 SLP180 =
2018-08-21 01:00 METAR CYTR 210100Z 05004KT 15SM BKN080 BKN220 21/16 A3006 RMK AC5CI2 SLP180 =
2018-08-21 00:00 METAR CYTR 210000Z 11004KT 15SM SCT080 BKN220 23/16 A3005 RMK AC3CI4 SLP178 =
2018-08-20 23:00 METAR CYTR 202300Z 12003KT 15SM BKN080 OVC220 24/16 A3006 RMK AC6CI2 SLP180 =
2018-08-20 22:00 METAR CYTR 202200Z 13006KT 15SM FEW080 BKN220 24/16 A3006 RMK AC2CI6 SLP180 =
2018-08-20 21:00 METAR CYTR 202100Z 15007KT 15SM FEW031 FEW080 BKN220 25/15 A3006 RMK CU1AC1CI6
                 SLP182 =
2018-08-20 20:00 METAR CYTR 202000Z 17007KT 15SM FEW031 FEW080 BKN220 25/16 A3007 RMK CU1AC2CI5
                 SLP184 =
2018-08-20 19:00 METAR CYTR 201900Z 14007KT 15SM FEW031 BKN220 25/17 A3008 RMK CU2CI6 SLP185 =
2018-08-20 18:00 METAR CYTR 201800Z 15007KT 15SM SCT025 BKN220 25/18 A3009 RMK SC4CI3 SLP192 =
2018-08-20 17:00 METAR CYTR 201700Z 17006KT 15SM SCT020 BKN075 BKN250 24/19 A3011 RMK SC4AC3CI1
                 SLP199 =
2018-08-20 16:00 METAR CYTR 201600Z 13006KT 15SM SCT020 BKN075 OVC250 24/18 A3012 RMK SC3AC2CI2
                 SLP199 =
2018-08-20 15:00 METAR CYTR 201500Z 15005KT 15SM SCT020 BKN070 OVC250 23/18 A3013 RMK SC4AC2CI2
                 SLP204 =
2018-08-20 14:00 METAR CYTR 201400Z 16006KT 15SM SCT020 BKN090 BKN250 23/19 A3013 RMK SC4AC1CI1
                 SLP204 =

Support USWX by starting your Amazon purchase here.